sensor_id;sensor_type;location;lat;lon;timestamp;P1;durP1;ratioP1;P2;durP2;ratioP2
27618;SDS011;15039;50.830;4.730;2023-03-23T00:01:27;4.40;;;2.00;;
27618;SDS011;15039;50.830;4.730;2023-03-23T00:03:56;2.15;;;1.90;;
27618;SDS011;15039;50.830;4.730;2023-03-23T00:06:23;2.88;;;1.80;;
27618;SDS011;15039;50.830;4.730;2023-03-23T00:08:50;2.38;;;1.80;;
27618;SDS011;15039;50.830;4.730;2023-03-23T00:11:22;2.25;;;1.83;;
27618;SDS011;15039;50.830;4.730;2023-03-23T00:13:51;2.53;;;1.83;;
27618;SDS011;15039;50.830;4.730;2023-03-23T00:16:18;3.60;;;1.83;;
27618;SDS011;15039;50.830;4.730;2023-03-23T00:18:45;2.60;;;1.90;;
27618;SDS011;15039;50.830;4.730;2023-03-23T00:21:13;2.33;;;2.13;;
27618;SDS011;15039;50.830;4.730;2023-03-23T00:23:39;2.30;;;1.83;;
27618;SDS011;15039;50.830;4.730;2023-03-23T00:26:05;2.33;;;2.00;;
27618;SDS011;15039;50.830;4.730;2023-03-23T00:28:31;6.40;;;2.20;;
27618;SDS011;15039;50.830;4.730;2023-03-23T00:30:58;3.40;;;1.95;;
27618;SDS011;15039;50.830;4.730;2023-03-23T00:33:29;2.50;;;2.30;;
27618;SDS011;15039;50.830;4.730;2023-03-23T00:35:58;2.28;;;1.73;;
27618;SDS011;15039;50.830;4.730;2023-03-23T00:38:24;1.98;;;1.80;;
27618;SDS011;15039;50.830;4.730;2023-03-23T00:40:51;3.67;;;2.10;;
27618;SDS011;15039;50.830;4.730;2023-03-23T00:43:18;2.15;;;1.95;;
27618;SDS011;15039;50.830;4.730;2023-03-23T00:45:44;2.40;;;1.60;;
27618;SDS011;15039;50.830;4.730;2023-03-23T00:48:17;2.90;;;1.95;;
27618;SDS011;15039;50.830;4.730;2023-03-23T00:50:43;2.38;;;1.88;;
27618;SDS011;15039;50.830;4.730;2023-03-23T00:53:09;2.22;;;1.92;;
27618;SDS011;15039;50.830;4.730;2023-03-23T00:55:35;3.15;;;2.08;;
27618;SDS011;15039;50.830;4.730;2023-03-23T00:58:00;2.83;;;2.47;;
27618;SDS011;15039;50.830;4.730;2023-03-23T01:00:26;4.35;;;1.90;;
27618;SDS011;15039;50.830;4.730;2023-03-23T01:02:55;3.42;;;1.88;;
27618;SDS011;15039;50.830;4.730;2023-03-23T01:05:20;2.95;;;1.90;;
27618;SDS011;15039;50.830;4.730;2023-03-23T01:07:46;3.22;;;1.83;;
27618;SDS011;15039;50.830;4.730;2023-03-23T01:10:12;2.83;;;1.92;;
27618;SDS011;15039;50.830;4.730;2023-03-23T01:12:41;2.42;;;1.90;;
27618;SDS011;15039;50.830;4.730;2023-03-23T01:15:08;3.83;;;1.70;;
27618;SDS011;15039;50.830;4.730;2023-03-23T01:17:34;4.22;;;1.88;;
27618;SDS011;15039;50.830;4.730;2023-03-23T01:20:00;4.10;;;2.03;;
27618;SDS011;15039;50.830;4.730;2023-03-23T01:22:25;2.50;;;1.75;;
27618;SDS011;15039;50.830;4.730;2023-03-23T01:24:51;2.80;;;1.70;;
27618;SDS011;15039;50.830;4.730;2023-03-23T01:27:16;2.72;;;1.55;;
27618;SDS011;15039;50.830;4.730;2023-03-23T01:29:42;3.17;;;1.73;;
27618;SDS011;15039;50.830;4.730;2023-03-23T01:32:08;2.92;;;1.95;;
27618;SDS011;15039;50.830;4.730;2023-03-23T01:34:33;3.22;;;1.80;;
27618;SDS011;15039;50.830;4.730;2023-03-23T01:37:00;2.38;;;1.92;;
27618;SDS011;15039;50.830;4.730;2023-03-23T01:39:25;1.80;;;1.70;;
27618;SDS011;15039;50.830;4.730;2023-03-23T01:41:51;3.08;;;2.05;;
27618;SDS011;15039;50.830;4.730;2023-03-23T01:46:42;2.88;;;1.75;;
27618;SDS011;15039;50.830;4.730;2023-03-23T01:49:12;3.03;;;1.90;;
27618;SDS011;15039;50.830;4.730;2023-03-23T01:51:46;1.77;;;1.67;;
27618;SDS011;15039;50.830;4.730;2023-03-23T01:54:17;3.58;;;2.17;;
27618;SDS011;15039;50.830;4.730;2023-03-23T01:56:50;2.40;;;2.20;;
27618;SDS011;15039;50.830;4.730;2023-03-23T01:59:28;2.60;;;1.70;;
27618;SDS011;15039;50.830;4.730;2023-03-23T02:01:56;2.40;;;1.83;;
27618;SDS011;15039;50.830;4.730;2023-03-23T02:04:22;2.00;;;1.90;;
27618;SDS011;15039;50.830;4.730;2023-03-23T02:06:49;2.60;;;1.95;;
27618;SDS011;15039;50.830;4.730;2023-03-23T02:09:16;2.25;;;2.05;;
27618;SDS011;15039;50.830;4.730;2023-03-23T02:11:43;4.00;;;1.95;;
27618;SDS011;15039;50.830;4.730;2023-03-23T02:14:09;1.90;;;1.50;;
27618;SDS011;15039;50.830;4.730;2023-03-23T02:16:45;1.85;;;1.75;;
27618;SDS011;15039;50.830;4.730;2023-03-23T02:28:05;2.55;;;1.35;;
27618;SDS011;15039;50.830;4.730;2023-03-23T02:36:07;3.22;;;2.15;;
27618;SDS011;15039;50.830;4.730;2023-03-23T02:38:56;5.20;;;1.73;;
27618;SDS011;15039;50.830;4.730;2023-03-23T02:41:30;2.38;;;1.67;;
27618;SDS011;15039;50.830;4.730;2023-03-23T02:43:59;1.88;;;1.67;;
27618;SDS011;15039;50.830;4.730;2023-03-23T02:46:27;2.55;;;1.60;;
27618;SDS011;15039;50.830;4.730;2023-03-23T02:48:53;2.00;;;1.75;;
27618;SDS011;15039;50.830;4.730;2023-03-23T02:51:21;3.08;;;1.75;;
27618;SDS011;15039;50.830;4.730;2023-03-23T02:53:48;3.58;;;1.67;;
27618;SDS011;15039;50.830;4.730;2023-03-23T02:56:18;2.42;;;1.50;;
27618;SDS011;15039;50.830;4.730;2023-03-23T02:58:45;4.10;;;1.67;;
27618;SDS011;15039;50.830;4.730;2023-03-23T03:03:59;2.13;;;1.40;;
27618;SDS011;15039;50.830;4.730;2023-03-23T03:12:05;2.25;;;1.42;;
27618;SDS011;15039;50.830;4.730;2023-03-23T03:14:37;3.15;;;1.63;;
27618;SDS011;15039;50.830;4.730;2023-03-23T03:17:26;2.42;;;1.70;;
27618;SDS011;15039;50.830;4.730;2023-03-23T03:20:00;1.80;;;1.60;;
27618;SDS011;15039;50.830;4.730;2023-03-23T03:22:34;3.38;;;1.70;;
27618;SDS011;15039;50.830;4.730;2023-03-23T03:25:07;1.60;;;1.40;;
27618;SDS011;15039;50.830;4.730;2023-03-23T03:27:33;2.55;;;1.50;;
27618;SDS011;15039;50.830;4.730;2023-03-23T03:29:59;1.40;;;1.23;;
27618;SDS011;15039;50.830;4.730;2023-03-23T03:32:30;3.65;;;1.40;;
27618;SDS011;15039;50.830;4.730;2023-03-23T03:35:02;2.17;;;1.45;;
27618;SDS011;15039;50.830;4.730;2023-03-23T03:37:32;4.70;;;1.60;;
27618;SDS011;15039;50.830;4.730;2023-03-23T03:40:02;1.55;;;1.33;;
27618;SDS011;15039;50.830;4.730;2023-03-23T03:42:33;1.98;;;1.50;;
27618;SDS011;15039;50.830;4.730;2023-03-23T03:44:58;2.83;;;1.80;;
27618;SDS011;15039;50.830;4.730;2023-03-23T03:47:24;3.13;;;1.88;;
27618;SDS011;15039;50.830;4.730;2023-03-23T03:49:50;1.33;;;1.23;;
27618;SDS011;15039;50.830;4.730;2023-03-23T03:52:15;1.67;;;1.25;;
27618;SDS011;15039;50.830;4.730;2023-03-23T03:54:41;2.20;;;1.27;;
27618;SDS011;15039;50.830;4.730;2023-03-23T03:57:06;2.20;;;1.40;;
27618;SDS011;15039;50.830;4.730;2023-03-23T03:59:33;2.40;;;1.70;;
27618;SDS011;15039;50.830;4.730;2023-03-23T04:01:59;2.92;;;1.40;;
27618;SDS011;15039;50.830;4.730;2023-03-23T04:04:24;3.42;;;1.40;;
27618;SDS011;15039;50.830;4.730;2023-03-23T04:06:50;1.88;;;1.25;;
27618;SDS011;15039;50.830;4.730;2023-03-23T04:09:16;3.38;;;1.50;;
27618;SDS011;15039;50.830;4.730;2023-03-23T04:11:41;3.38;;;1.45;;
27618;SDS011;15039;50.830;4.730;2023-03-23T04:14:07;1.50;;;1.40;;
27618;SDS011;15039;50.830;4.730;2023-03-23T04:16:32;2.05;;;1.48;;
27618;SDS011;15039;50.830;4.730;2023-03-23T04:18:59;1.60;;;1.40;;
27618;SDS011;15039;50.830;4.730;2023-03-23T04:21:25;2.00;;;1.23;;
27618;SDS011;15039;50.830;4.730;2023-03-23T04:23:53;2.08;;;1.40;;
27618;SDS011;15039;50.830;4.730;2023-03-23T04:26:20;3.65;;;1.50;;
27618;SDS011;15039;50.830;4.730;2023-03-23T04:28:46;3.22;;;1.27;;
27618;SDS011;15039;50.830;4.730;2023-03-23T04:31:12;4.20;;;1.70;;
27618;SDS011;15039;50.830;4.730;2023-03-23T04:33:40;5.15;;;1.38;;
27618;SDS011;15039;50.830;4.730;2023-03-23T04:36:06;5.32;;;1.50;;
27618;SDS011;15039;50.830;4.730;2023-03-23T04:38:32;2.88;;;1.33;;
27618;SDS011;15039;50.830;4.730;2023-03-23T04:40:59;2.70;;;1.08;;
27618;SDS011;15039;50.830;4.730;2023-03-23T04:43:27;2.97;;;1.30;;
27618;SDS011;15039;50.830;4.730;2023-03-23T04:45:56;2.92;;;1.08;;
27618;SDS011;15039;50.830;4.730;2023-03-23T04:48:27;1.10;;;1.00;;
27618;SDS011;15039;50.830;4.730;2023-03-23T04:50:55;2.40;;;1.10;;
27618;SDS011;15039;50.830;4.730;2023-03-23T04:53:21;2.65;;;1.35;;
27618;SDS011;15039;50.830;4.730;2023-03-23T04:55:47;4.30;;;1.35;;
27618;SDS011;15039;50.830;4.730;2023-03-23T04:58:14;2.85;;;1.10;;
27618;SDS011;15039;50.830;4.730;2023-03-23T05:00:41;2.10;;;1.00;;
27618;SDS011;15039;50.830;4.730;2023-03-23T05:03:15;3.05;;;1.30;;
27618;SDS011;15039;50.830;4.730;2023-03-23T05:05:41;3.75;;;1.30;;
27618;SDS011;15039;50.830;4.730;2023-03-23T05:08:07;4.75;;;1.38;;
27618;SDS011;15039;50.830;4.730;2023-03-23T05:10:33;2.67;;;0.95;;
27618;SDS011;15039;50.830;4.730;2023-03-23T05:12:58;2.17;;;1.00;;
27618;SDS011;15039;50.830;4.730;2023-03-23T05:15:24;2.70;;;1.20;;
27618;SDS011;15039;50.830;4.730;2023-03-23T05:17:53;1.25;;;1.10;;
27618;SDS011;15039;50.830;4.730;2023-03-23T05:20:19;3.40;;;1.20;;
27618;SDS011;15039;50.830;4.730;2023-03-23T05:22:45;3.00;;;1.30;;
27618;SDS011;15039;50.830;4.730;2023-03-23T05:25:14;4.47;;;1.23;;
27618;SDS011;15039;50.830;4.730;2023-03-23T05:27:43;2.83;;;1.15;;
27618;SDS011;15039;50.830;4.730;2023-03-23T05:30:13;2.75;;;1.17;;
27618;SDS011;15039;50.830;4.730;2023-03-23T05:32:41;2.50;;;1.00;;
27618;SDS011;15039;50.830;4.730;2023-03-23T05:35:08;2.28;;;1.10;;
27618;SDS011;15039;50.830;4.730;2023-03-23T05:37:33;4.43;;;1.10;;
27618;SDS011;15039;50.830;4.730;2023-03-23T05:39:59;4.30;;;1.73;;
27618;SDS011;15039;50.830;4.730;2023-03-23T05:42:31;2.83;;;1.30;;
27618;SDS011;15039;50.830;4.730;2023-03-23T05:44:58;2.55;;;1.67;;
27618;SDS011;15039;50.830;4.730;2023-03-23T05:47:24;2.85;;;1.20;;
27618;SDS011;15039;50.830;4.730;2023-03-23T05:49:50;2.80;;;1.38;;
27618;SDS011;15039;50.830;4.730;2023-03-23T05:52:16;2.03;;;1.40;;
27618;SDS011;15039;50.830;4.730;2023-03-23T05:54:42;2.05;;;1.33;;
27618;SDS011;15039;50.830;4.730;2023-03-23T05:57:09;3.10;;;1.52;;
27618;SDS011;15039;50.830;4.730;2023-03-23T05:59:35;4.47;;;1.45;;
27618;SDS011;15039;50.830;4.730;2023-03-23T06:02:01;1.65;;;1.10;;
27618;SDS011;15039;50.830;4.730;2023-03-23T06:04:27;3.13;;;1.25;;
27618;SDS011;15039;50.830;4.730;2023-03-23T06:06:53;3.78;;;1.40;;
27618;SDS011;15039;50.830;4.730;2023-03-23T06:09:18;3.05;;;1.35;;
27618;SDS011;15039;50.830;4.730;2023-03-23T06:11:45;6.20;;;1.58;;
27618;SDS011;15039;50.830;4.730;2023-03-23T06:14:12;6.25;;;1.50;;
27618;SDS011;15039;50.830;4.730;2023-03-23T06:16:38;3.72;;;1.23;;
27618;SDS011;15039;50.830;4.730;2023-03-23T06:19:03;3.83;;;1.48;;
27618;SDS011;15039;50.830;4.730;2023-03-23T06:21:32;2.97;;;1.05;;
27618;SDS011;15039;50.830;4.730;2023-03-23T06:23:58;4.53;;;1.17;;
27618;SDS011;15039;50.830;4.730;2023-03-23T06:26:32;6.25;;;1.70;;
27618;SDS011;15039;50.830;4.730;2023-03-23T06:29:01;4.63;;;1.35;;
27618;SDS011;15039;50.830;4.730;2023-03-23T06:31:27;3.95;;;1.40;;
27618;SDS011;15039;50.830;4.730;2023-03-23T06:33:53;3.22;;;1.23;;
27618;SDS011;15039;50.830;4.730;2023-03-23T06:36:20;3.83;;;1.30;;
27618;SDS011;15039;50.830;4.730;2023-03-23T06:38:45;4.50;;;1.42;;
27618;SDS011;15039;50.830;4.730;2023-03-23T06:41:11;3.10;;;1.10;;
27618;SDS011;15039;50.830;4.730;2023-03-23T06:43:37;1.40;;;1.00;;
27618;SDS011;15039;50.830;4.730;2023-03-23T06:46:04;3.90;;;1.23;;
27618;SDS011;15039;50.830;4.730;2023-03-23T06:48:31;2.47;;;1.10;;
27618;SDS011;15039;50.830;4.730;2023-03-23T06:50:57;3.50;;;1.25;;
27618;SDS011;15039;50.830;4.730;2023-03-23T06:53:22;2.58;;;1.40;;
27618;SDS011;15039;50.830;4.730;2023-03-23T06:55:48;8.60;;;1.48;;
27618;SDS011;15039;50.830;4.730;2023-03-23T06:58:14;3.28;;;1.35;;
27618;SDS011;15039;50.830;4.730;2023-03-23T07:00:40;2.75;;;1.10;;
27618;SDS011;15039;50.830;4.730;2023-03-23T07:03:06;4.57;;;1.27;;
27618;SDS011;15039;50.830;4.730;2023-03-23T07:05:33;2.60;;;1.35;;
27618;SDS011;15039;50.830;4.730;2023-03-23T07:08:00;2.65;;;1.08;;
27618;SDS011;15039;50.830;4.730;2023-03-23T07:10:27;3.65;;;1.25;;
27618;SDS011;15039;50.830;4.730;2023-03-23T07:12:53;4.15;;;1.00;;
27618;SDS011;15039;50.830;4.730;2023-03-23T07:15:19;3.42;;;1.13;;
27618;SDS011;15039;50.830;4.730;2023-03-23T07:17:44;2.53;;;1.27;;
27618;SDS011;15039;50.830;4.730;2023-03-23T07:20:12;2.58;;;1.33;;
27618;SDS011;15039;50.830;4.730;2023-03-23T07:22:38;5.75;;;1.90;;
27618;SDS011;15039;50.830;4.730;2023-03-23T07:25:04;2.72;;;1.15;;
27618;SDS011;15039;50.830;4.730;2023-03-23T07:27:30;5.93;;;1.30;;
27618;SDS011;15039;50.830;4.730;2023-03-23T07:29:56;2.95;;;1.17;;
27618;SDS011;15039;50.830;4.730;2023-03-23T07:32:22;3.08;;;1.15;;
27618;SDS011;15039;50.830;4.730;2023-03-23T07:34:49;4.47;;;1.60;;
27618;SDS011;15039;50.830;4.730;2023-03-23T07:37:14;3.15;;;1.10;;
27618;SDS011;15039;50.830;4.730;2023-03-23T07:39:40;4.10;;;1.40;;
27618;SDS011;15039;50.830;4.730;2023-03-23T07:42:07;3.70;;;1.20;;
27618;SDS011;15039;50.830;4.730;2023-03-23T07:44:33;3.88;;;1.38;;
27618;SDS011;15039;50.830;4.730;2023-03-23T07:46:59;1.80;;;1.10;;
27618;SDS011;15039;50.830;4.730;2023-03-23T07:49:25;4.10;;;1.38;;
27618;SDS011;15039;50.830;4.730;2023-03-23T07:51:51;4.40;;;1.30;;
27618;SDS011;15039;50.830;4.730;2023-03-23T07:54:17;2.58;;;1.48;;
27618;SDS011;15039;50.830;4.730;2023-03-23T07:56:43;4.97;;;1.40;;
27618;SDS011;15039;50.830;4.730;2023-03-23T07:59:10;3.30;;;1.30;;
27618;SDS011;15039;50.830;4.730;2023-03-23T08:01:37;4.68;;;1.50;;
27618;SDS011;15039;50.830;4.730;2023-03-23T08:04:03;5.25;;;1.60;;
27618;SDS011;15039;50.830;4.730;2023-03-23T08:06:31;5.18;;;1.50;;
27618;SDS011;15039;50.830;4.730;2023-03-23T08:08:58;5.15;;;1.63;;
27618;SDS011;15039;50.830;4.730;2023-03-23T08:11:24;2.90;;;1.52;;
27618;SDS011;15039;50.830;4.730;2023-03-23T08:13:50;4.03;;;1.60;;
27618;SDS011;15039;50.830;4.730;2023-03-23T08:16:17;5.75;;;1.55;;
27618;SDS011;15039;50.830;4.730;2023-03-23T08:18:44;3.25;;;1.77;;
27618;SDS011;15039;50.830;4.730;2023-03-23T08:21:11;4.72;;;1.60;;
27618;SDS011;15039;50.830;4.730;2023-03-23T08:23:38;6.85;;;1.75;;
27618;SDS011;15039;50.830;4.730;2023-03-23T08:26:04;4.35;;;1.60;;
27618;SDS011;15039;50.830;4.730;2023-03-23T08:28:32;3.63;;;1.52;;
27618;SDS011;15039;50.830;4.730;2023-03-23T08:30:59;4.50;;;1.95;;
27618;SDS011;15039;50.830;4.730;2023-03-23T08:33:25;5.20;;;1.65;;
27618;SDS011;15039;50.830;4.730;2023-03-23T08:35:56;1.75;;;1.38;;
27618;SDS011;15039;50.830;4.730;2023-03-23T08:38:23;5.00;;;1.27;;
27618;SDS011;15039;50.830;4.730;2023-03-23T08:40:49;2.10;;;0.95;;
27618;SDS011;15039;50.830;4.730;2023-03-23T08:43:15;3.17;;;1.27;;
27618;SDS011;15039;50.830;4.730;2023-03-23T08:45:41;2.00;;;0.88;;
27618;SDS011;15039;50.830;4.730;2023-03-23T08:48:07;1.98;;;0.80;;
27618;SDS011;15039;50.830;4.730;2023-03-23T08:50:33;1.65;;;0.82;;
27618;SDS011;15039;50.830;4.730;2023-03-23T08:53:00;2.80;;;0.90;;
27618;SDS011;15039;50.830;4.730;2023-03-23T08:55:26;3.45;;;0.80;;
27618;SDS011;15039;50.830;4.730;2023-03-23T08:57:53;0.82;;;0.60;;
27618;SDS011;15039;50.830;4.730;2023-03-23T09:00:19;2.20;;;0.60;;
27618;SDS011;15039;50.830;4.730;2023-03-23T09:02:49;1.15;;;0.68;;
27618;SDS011;15039;50.830;4.730;2023-03-23T09:05:16;0.70;;;0.70;;
27618;SDS011;15039;50.830;4.730;2023-03-23T09:07:47;1.80;;;0.73;;
27618;SDS011;15039;50.830;4.730;2023-03-23T09:10:14;2.70;;;1.02;;
27618;SDS011;15039;50.830;4.730;2023-03-23T09:12:41;2.60;;;0.70;;
27618;SDS011;15039;50.830;4.730;2023-03-23T09:15:08;2.45;;;0.80;;
27618;SDS011;15039;50.830;4.730;2023-03-23T09:17:36;0.50;;;0.47;;
27618;SDS011;15039;50.830;4.730;2023-03-23T09:20:03;1.88;;;1.17;;
27618;SDS011;15039;50.830;4.730;2023-03-23T09:22:37;1.08;;;0.68;;
27618;SDS011;15039;50.830;4.730;2023-03-23T09:25:04;1.80;;;0.73;;
27618;SDS011;15039;50.830;4.730;2023-03-23T09:27:31;2.45;;;0.77;;
27618;SDS011;15039;50.830;4.730;2023-03-23T09:29:58;1.40;;;0.70;;
27618;SDS011;15039;50.830;4.730;2023-03-23T09:32:27;1.33;;;0.82;;
27618;SDS011;15039;50.830;4.730;2023-03-23T09:34:53;2.08;;;0.88;;
27618;SDS011;15039;50.830;4.730;2023-03-23T09:37:21;0.82;;;0.65;;
27618;SDS011;15039;50.830;4.730;2023-03-23T09:39:46;2.45;;;0.80;;
27618;SDS011;15039;50.830;4.730;2023-03-23T09:50:32;2.45;;;0.93;;
27618;SDS011;15039;50.830;4.730;2023-03-23T09:53:00;1.70;;;0.98;;
27618;SDS011;15039;50.830;4.730;2023-03-23T09:55:47;1.48;;;1.00;;
27618;SDS011;15039;50.830;4.730;2023-03-23T09:58:28;2.53;;;0.90;;
27618;SDS011;15039;50.830;4.730;2023-03-23T10:00:58;1.60;;;0.88;;
27618;SDS011;15039;50.830;4.730;2023-03-23T10:03:41;1.02;;;0.82;;
27618;SDS011;15039;50.830;4.730;2023-03-23T10:06:10;1.65;;;0.82;;
27618;SDS011;15039;50.830;4.730;2023-03-23T10:08:43;1.05;;;0.70;;
27618;SDS011;15039;50.830;4.730;2023-03-23T10:19:20;1.38;;;0.93;;
27618;SDS011;15039;50.830;4.730;2023-03-23T10:21:56;1.88;;;1.17;;
27618;SDS011;15039;50.830;4.730;2023-03-23T10:24:32;1.52;;;0.63;;
27618;SDS011;15039;50.830;4.730;2023-03-23T10:32:39;2.92;;;1.25;;
27618;SDS011;15039;50.830;4.730;2023-03-23T10:37:58;1.50;;;1.10;;
27618;SDS011;15039;50.830;4.730;2023-03-23T10:40:27;2.35;;;1.67;;
27618;SDS011;15039;50.830;4.730;2023-03-23T10:42:55;2.57;;;1.23;;
27618;SDS011;15039;50.830;4.730;2023-03-23T10:45:27;2.65;;;1.40;;
27618;SDS011;15039;50.830;4.730;2023-03-23T10:50:51;1.88;;;1.45;;
27618;SDS011;15039;50.830;4.730;2023-03-23T10:53:22;2.00;;;1.67;;
27618;SDS011;15039;50.830;4.730;2023-03-23T10:55:55;2.58;;;1.20;;
27618;SDS011;15039;50.830;4.730;2023-03-23T10:58:28;2.70;;;1.60;;
27618;SDS011;15039;50.830;4.730;2023-03-23T11:00:57;3.45;;;1.67;;
27618;SDS011;15039;50.830;4.730;2023-03-23T11:06:21;3.80;;;1.38;;
27618;SDS011;15039;50.830;4.730;2023-03-23T11:09:33;3.72;;;1.40;;
27618;SDS011;15039;50.830;4.730;2023-03-23T11:11:41;3.45;;;1.65;;
27618;SDS011;15039;50.830;4.730;2023-03-23T11:14:28;3.00;;;1.50;;
27618;SDS011;15039;50.830;4.730;2023-03-23T11:17:02;3.40;;;1.60;;
27618;SDS011;15039;50.830;4.730;2023-03-23T11:19:35;2.55;;;1.27;;
27618;SDS011;15039;50.830;4.730;2023-03-23T11:22:12;2.65;;;1.33;;
27618;SDS011;15039;50.830;4.730;2023-03-23T11:24:46;3.25;;;1.50;;
27618;SDS011;15039;50.830;4.730;2023-03-23T11:27:13;5.63;;;1.60;;
27618;SDS011;15039;50.830;4.730;2023-03-23T11:32:18;3.60;;;1.48;;
27618;SDS011;15039;50.830;4.730;2023-03-23T11:34:53;3.30;;;1.33;;
27618;SDS011;15039;50.830;4.730;2023-03-23T11:37:27;2.78;;;1.38;;
27618;SDS011;15039;50.830;4.730;2023-03-23T11:42:56;2.92;;;1.40;;
27618;SDS011;15039;50.830;4.730;2023-03-23T11:45:30;3.47;;;1.50;;
27618;SDS011;15039;50.830;4.730;2023-03-23T11:48:06;6.15;;;1.70;;
27618;SDS011;15039;50.830;4.730;2023-03-23T11:58:41;2.97;;;1.33;;
27618;SDS011;15039;50.830;4.730;2023-03-23T12:21:37;2.50;;;1.20;;
27618;SDS011;15039;50.830;4.730;2023-03-23T12:24:46;2.55;;;0.95;;
27618;SDS011;15039;50.830;4.730;2023-03-23T12:27:45;3.93;;;1.27;;
27618;SDS011;15039;50.830;4.730;2023-03-23T12:30:23;6.20;;;1.60;;
27618;SDS011;15039;50.830;4.730;2023-03-23T12:33:07;3.95;;;1.40;;
27618;SDS011;15039;50.830;4.730;2023-03-23T12:36:03;2.97;;;1.40;;
27618;SDS011;15039;50.830;4.730;2023-03-23T12:38:46;3.30;;;1.17;;
27618;SDS011;15039;50.830;4.730;2023-03-23T12:41:30;3.63;;;1.60;;
27618;SDS011;15039;50.830;4.730;2023-03-23T12:44:02;5.30;;;1.40;;
27618;SDS011;15039;50.830;4.730;2023-03-23T12:51:49;4.75;;;1.85;;
27618;SDS011;15039;50.830;4.730;2023-03-23T12:54:28;5.00;;;2.10;;
27618;SDS011;15039;50.830;4.730;2023-03-23T12:57:22;3.65;;;2.08;;
27618;SDS011;15039;50.830;4.730;2023-03-23T13:07:53;3.97;;;1.80;;
27618;SDS011;15039;50.830;4.730;2023-03-23T13:10:46;6.03;;;2.03;;
27618;SDS011;15039;50.830;4.730;2023-03-23T13:13:23;5.20;;;1.80;;
27618;SDS011;15039;50.830;4.730;2023-03-23T13:15:59;4.47;;;1.65;;
27618;SDS011;15039;50.830;4.730;2023-03-23T13:21:21;5.75;;;1.80;;
27618;SDS011;15039;50.830;4.730;2023-03-23T13:24:05;6.45;;;2.28;;
27618;SDS011;15039;50.830;4.730;2023-03-23T13:29:06;5.82;;;1.58;;
27618;SDS011;15039;50.830;4.730;2023-03-23T13:31:34;3.90;;;1.60;;
27618;SDS011;15039;50.830;4.730;2023-03-23T13:34:05;4.78;;;1.73;;
27618;SDS011;15039;50.830;4.730;2023-03-23T13:36:41;4.28;;;1.65;;
27618;SDS011;15039;50.830;4.730;2023-03-23T13:39:21;4.20;;;1.45;;
27618;SDS011;15039;50.830;4.730;2023-03-23T13:49:59;2.65;;;1.30;;
27618;SDS011;15039;50.830;4.730;2023-03-23T14:10:53;7.30;;;1.90;;
27618;SDS011;15039;50.830;4.730;2023-03-23T14:16:01;5.15;;;1.65;;
27618;SDS011;15039;50.830;4.730;2023-03-23T14:18:30;4.60;;;1.30;;
27618;SDS011;15039;50.830;4.730;2023-03-23T14:21:04;4.55;;;1.35;;
27618;SDS011;15039;50.830;4.730;2023-03-23T14:23:32;5.70;;;1.65;;
27618;SDS011;15039;50.830;4.730;2023-03-23T14:25:59;6.70;;;1.73;;
27618;SDS011;15039;50.830;4.730;2023-03-23T14:28:38;4.13;;;1.55;;
27618;SDS011;15039;50.830;4.730;2023-03-23T14:31:07;3.92;;;1.63;;
27618;SDS011;15039;50.830;4.730;2023-03-23T14:33:43;6.07;;;1.52;;
27618;SDS011;15039;50.830;4.730;2023-03-23T14:36:08;7.03;;;1.85;;
27618;SDS011;15039;50.830;4.730;2023-03-23T14:38:34;5.70;;;2.05;;
27618;SDS011;15039;50.830;4.730;2023-03-23T14:41:03;6.90;;;2.45;;
27618;SDS011;15039;50.830;4.730;2023-03-23T14:43:30;7.07;;;1.83;;
27618;SDS011;15039;50.830;4.730;2023-03-23T14:46:00;5.10;;;1.92;;
27618;SDS011;15039;50.830;4.730;2023-03-23T14:48:28;2.67;;;1.55;;
27618;SDS011;15039;50.830;4.730;2023-03-23T14:50:58;6.50;;;2.38;;
27618;SDS011;15039;50.830;4.730;2023-03-23T14:53:36;7.68;;;2.13;;
27618;SDS011;15039;50.830;4.730;2023-03-23T14:56:09;6.70;;;2.42;;
27618;SDS011;15039;50.830;4.730;2023-03-23T14:58:44;3.05;;;2.13;;
27618;SDS011;15039;50.830;4.730;2023-03-23T15:01:11;7.57;;;2.25;;
27618;SDS011;15039;50.830;4.730;2023-03-23T15:03:42;5.78;;;1.80;;
27618;SDS011;15039;50.830;4.730;2023-03-23T15:06:16;5.10;;;1.90;;
27618;SDS011;15039;50.830;4.730;2023-03-23T15:08:45;8.07;;;2.45;;
27618;SDS011;15039;50.830;4.730;2023-03-23T15:13:44;4.93;;;1.88;;
27618;SDS011;15039;50.830;4.730;2023-03-23T15:16:18;4.18;;;1.63;;
27618;SDS011;15039;50.830;4.730;2023-03-23T15:18:56;5.38;;;1.70;;
27618;SDS011;15039;50.830;4.730;2023-03-23T15:21:35;2.78;;;1.10;;
27618;SDS011;15039;50.830;4.730;2023-03-23T15:25:02;4.68;;;1.73;;
27618;SDS011;15039;50.830;4.730;2023-03-23T15:27:25;6.72;;;1.58;;
27618;SDS011;15039;50.830;4.730;2023-03-23T15:29:55;6.07;;;2.00;;
27618;SDS011;15039;50.830;4.730;2023-03-23T15:32:39;4.30;;;1.52;;
27618;SDS011;15039;50.830;4.730;2023-03-23T15:35:40;7.82;;;3.25;;
27618;SDS011;15039;50.830;4.730;2023-03-23T15:38:01;4.70;;;1.98;;
27618;SDS011;15039;50.830;4.730;2023-03-23T15:40:32;6.47;;;2.10;;
27618;SDS011;15039;50.830;4.730;2023-03-23T15:43:34;7.50;;;4.35;;
27618;SDS011;15039;50.830;4.730;2023-03-23T15:45:53;4.43;;;1.95;;
27618;SDS011;15039;50.830;4.730;2023-03-23T15:51:20;3.20;;;1.67;;
27618;SDS011;15039;50.830;4.730;2023-03-23T15:53:48;4.70;;;1.85;;
27618;SDS011;15039;50.830;4.730;2023-03-23T15:56:16;4.40;;;2.27;;
27618;SDS011;15039;50.830;4.730;2023-03-23T15:58:41;7.63;;;2.65;;
27618;SDS011;15039;50.830;4.730;2023-03-23T16:01:11;4.47;;;2.25;;
27618;SDS011;15039;50.830;4.730;2023-03-23T16:06:10;6.93;;;2.22;;
27618;SDS011;15039;50.830;4.730;2023-03-23T16:08:36;6.35;;;2.55;;
27618;SDS011;15039;50.830;4.730;2023-03-23T16:11:05;5.93;;;2.35;;
27618;SDS011;15039;50.830;4.730;2023-03-23T16:13:32;3.78;;;1.85;;
27618;SDS011;15039;50.830;4.730;2023-03-23T16:15:57;3.92;;;1.77;;
27618;SDS011;15039;50.830;4.730;2023-03-23T16:18:23;8.13;;;2.13;;
27618;SDS011;15039;50.830;4.730;2023-03-23T16:20:49;4.75;;;1.92;;
27618;SDS011;15039;50.830;4.730;2023-03-23T16:23:15;6.28;;;1.85;;
27618;SDS011;15039;50.830;4.730;2023-03-23T16:25:41;5.18;;;1.80;;
27618;SDS011;15039;50.830;4.730;2023-03-23T16:28:08;4.05;;;1.80;;
27618;SDS011;15039;50.830;4.730;2023-03-23T16:30:36;4.35;;;1.65;;
27618;SDS011;15039;50.830;4.730;2023-03-23T16:33:02;4.13;;;1.80;;
27618;SDS011;15039;50.830;4.730;2023-03-23T16:35:28;4.40;;;1.92;;
27618;SDS011;15039;50.830;4.730;2023-03-23T16:37:54;6.95;;;1.95;;
27618;SDS011;15039;50.830;4.730;2023-03-23T16:40:21;3.80;;;1.42;;
27618;SDS011;15039;50.830;4.730;2023-03-23T16:42:47;5.18;;;1.80;;
27618;SDS011;15039;50.830;4.730;2023-03-23T16:45:14;7.80;;;2.05;;
27618;SDS011;15039;50.830;4.730;2023-03-23T16:47:41;5.63;;;1.58;;
27618;SDS011;15039;50.830;4.730;2023-03-23T16:50:08;3.97;;;1.80;;
27618;SDS011;15039;50.830;4.730;2023-03-23T16:52:45;7.32;;;1.60;;
27618;SDS011;15039;50.830;4.730;2023-03-23T16:55:15;3.67;;;1.63;;
27618;SDS011;15039;50.830;4.730;2023-03-23T16:57:41;4.75;;;1.85;;
27618;SDS011;15039;50.830;4.730;2023-03-23T17:00:08;5.93;;;1.70;;
27618;SDS011;15039;50.830;4.730;2023-03-23T17:02:44;5.93;;;1.70;;
27618;SDS011;15039;50.830;4.730;2023-03-23T17:05:11;4.82;;;1.80;;
27618;SDS011;15039;50.830;4.730;2023-03-23T17:07:37;7.45;;;2.03;;
27618;SDS011;15039;50.830;4.730;2023-03-23T17:10:05;6.40;;;2.20;;
27618;SDS011;15039;50.830;4.730;2023-03-23T17:12:32;7.43;;;2.05;;
27618;SDS011;15039;50.830;4.730;2023-03-23T17:14:57;5.63;;;1.80;;
27618;SDS011;15039;50.830;4.730;2023-03-23T17:17:26;7.00;;;1.25;;
27618;SDS011;15039;50.830;4.730;2023-03-23T17:19:52;10.18;;;2.13;;
27618;SDS011;15039;50.830;4.730;2023-03-23T17:22:17;9.07;;;2.63;;
27618;SDS011;15039;50.830;4.730;2023-03-23T17:24:43;7.68;;;1.75;;
27618;SDS011;15039;50.830;4.730;2023-03-23T17:27:11;4.65;;;1.92;;